Tiempo atmosférico en la estación meteorológica de Viso Del Marqués, Ciudad Real (778 m.)



Fecha
DESCASC
Temp. máxima en grados centígrados (hora)
DESCASC
Temp. mínima en grados centígrados (hora)
DESCASC
Temp. media en grados centígrados
DESCASC
Racha de viento máxima en m/sg (hora)
DESCASC
Velocidad máxima media en intervalos de 10 minutos(hora)
DESCASC
Precipitaciones diarias en mm
DESCASC
Precipitaciones de 00:00 a 06:00 en mm
DESCASC
Precipitaciones de 06:00 a 12:00 en mm
DESCASC
Precipitaciones de 12:00 a 18:00 en mm
DESCASC
Precipitaciones de 18:00 a 24:00 en mm
DESCASC
08-12-2019 12.1 (14:50) -2.2 (08:10) 5 5.28 (15:30) 3.33 (15:30) 0.1 0.1 0 0 0
07-12-2019 4.2 (16:00) 0.2 (03:50) 2.2 3.61 (16:50) 1.94 (16:50) 0.2 0 0.1 0 0.1
06-12-2019 10.6 (14:50) -1.9 (07:00) 4.4 5.28 (15:20) 3.06 (15:10) 0 0 0 0 0
05-12-2019 8.2 (16:20) 1.4 (00:00) 4.8 6.11 (12:40) 4.17 (11:50) 0.1 0.1 0 0 0
04-12-2019 6.7 (13:10) 0.5 (00:00) 3.6 4.72 (19:40) 3.06 (14:20) 3.7 0 0 2.7 1
03-12-2019 8.2 (14:10) 2.2 (00:00) 5.2 11.39 (00:20) 6.39 (00:20) 0 0 0 0 0
02-12-2019 8.2 (14:10) 1.6 (00:00) 4.9 11.39 (17:40) 6.67 (11:50) 0.1 0.1 0 0 0
01-12-2019 8.2 (00:00) 0.8 (00:00) 4.5 9.72 (17:00) 6.94 (17:00) 6.5 0.8 0 2.9 2.8
30-11-2019 16.3 (14:30) 3.3 (00:00) 9.8 10.56 (22:00) 7.5 (21:40) 0 0 0 0 0
29-11-2019 10.9 (13:30) 4.5 (00:00) 7.7 4.17 (11:40) 2.78 (12:20) 0 0 0 0 0
28-11-2019 8.5 (14:50) 2.4 (00:00) 5.5 6.67 (13:40) 4.44 (13:40) 0 0 0 0 0
27-11-2019 11.3 (13:40) 4.2 (00:00) 7.8 12.22 (10:30) 8.33 (11:50) 0.3 0.2 0.1 0 0
26-11-2019 13.4 (15:00) 6.2 (00:00) 9.8 12.5 (18:10) 10 (18:10) 0.4 0 0 0 0.4
25-11-2019 12.1 (13:40) 4.9 (00:00) 8.5 15 (07:10) 8.33 (12:10) 0 0 0 0 0
24-11-2019 9.2 (15:20) 0 (00:00) 4.6 8.89 (15:40) 6.11 (17:00) 0 0 0 0 0
23-11-2019 8.3 (14:50) 2.3 (00:00) 5.3 17.22 (03:20) 10.56 (02:30) 3.5 3.5 0 0 0
22-11-2019 9.2 (17:00) 5.2 (00:00) 7.2 18.33 (13:50) 11.67 (15:10) 14.8 0 0 13 1.8
21-11-2019 7.3 (16:20) 3.3 (00:00) 5.3 8.33 (13:30) 6.11 (12:50) 2.8 0.7 0.1 1.3 0.7
20-11-2019 7.9 (11:30) -2.1 (-00:0) 2.9 10 (12:10) 6.67 (12:20) 2.8 0 0 1.7 1.1
19-11-2019 8.9 (14:50) -2.1 (-00:0) 3.4 5.56 (15:20) 2.22 (16:10) 0 0 0 0 0
18-11-2019 7.7 (17:10) -0.2 (00:00) 3.7 13.06 (01:10) 6.67 (01:10) 2.7 2.7 0 0 0
17-11-2019 6.4 (23:59) -1.7 (-00:0) 2.4 12.5 (21:40) 9.17 (21:50) 6 0 0 0 6
16-11-2019 7.9 (15:50) -3.2 (-00:0) 2.4 6.39 (16:00) 4.17 (19:30) 0 0 0 0 0
15-11-2019 5.3 (13:30) -1.1 (-00:0) 2.1 11.11 (00:20) 6.11 (04:10) 0 0 0 0 0
14-11-2019 7.3 (00:10) 2 (00:00) 4.7 15 (15:00) 10.83 (20:30) 7.2 0 3.7 3.5 0
13-11-2019 14.7 (15:30) 6.1 (00:00) 10.4 15.28 (08:30) 10 (08:30) 0.2 0 0.1 0.1 0
12-11-2019 11.4 (16:40) -0.2 (00:00) 5.6 6.39 (14:40) 4.17 (23:59) 0 0 0 0 0
11-11-2019 8.5 (15:00) 0.8 (01:50) 4.7 6.67 (15:00) 4.17 (15:00) 0 0 0 0 0

Gráficas

Temp. máximas Temp. mínimas Temp. medias Precipitaciones Rachas de viento máximas Velocidades máximas media en intervalos de 10 minutos

Datos horarios

Fecha y hora oficial Temperatura (ºC) Velocidad del viento (km/h) Dirección del viento Racha (km/h) Dirección de racha Precipitación (mm) Presión (hPa) Tendencia (hPa) Humedad (%)
2019-12-10 23:00:00 1.9 0 Calma 3 Nordeste 0 932.5 -0.4 50
2019-12-10 22:00:00 3.1 0 Calma 4 Sur 0 932.6 -0.2 45
2019-12-10 21:00:00 3.1 3 Sur 5 Sudoeste 0 932.5 -0.1 46
2019-12-10 20:00:00 3.6 5 Oeste 6 Oeste 0 932.9 0.3 43
2019-12-10 19:00:00 4.7 4 Sudoeste 6 Oeste 0 932.8 0 41
2019-12-10 18:00:00 7.9 4 Noroeste 8 Oeste 0 932.6 -0.7 37
2019-12-10 17:00:00 11.2 4 Oeste 9 Norte 0 932.6 -1.2 25
2019-12-10 16:00:00 9.4 5 Norte 10 Norte 0 932.8 -1.7 24
2019-12-10 15:00:00 9.2 4 Norte 14 Norte 0 933.3 -1.7 26
2019-12-10 14:00:00 8.7 6 Nordeste 9 Nordeste 0 933.8 -1.2 31
2019-12-10 13:00:00 7.7 3 Nordeste 9 Norte 0 934.5 -0.4 37
2019-12-10 12:00:00 4.5 4 Nordeste 10 Nordeste 0 935 -0.5 51
2019-12-10 11:00:00 2 7 Nordeste 10 Nordeste 0 935 -0.5 63
2019-12-10 10:00:00 0.6 5 Nordeste 8 Nordeste 0 934.9 -0.6 63
2019-12-10 09:00:00 0.9 0 Calma 6 Norte 0 935.5 -0.2 62
2019-12-10 08:00:00 0.7 2 Noroeste 8 Oeste 0 935.5 -0.3 62
2019-12-10 07:00:00 1.8 4 Noroeste 12 Este 0 935.5 -0.4 62
2019-12-10 06:00:00 2.3 5 Norte 15 Nordeste 0 935.7 0.3 62
2019-12-10 05:00:00 3.1 2 Nordeste 10 Norte 0 935.8 -0.1 64
2019-12-10 04:00:00 3.5 4 Oeste 8 Norte 0 935.9 -0.1 64
2019-12-10 03:00:00 3.2 0 Calma 7 Norte 0 935.4 -1 64
2019-12-10 02:00:00 3.8 4 Norte 9 Norte 0.1 935.9 -0.3 64
2019-12-10 01:00:00 4.1 3 Noroeste 8 Oeste 0 936 -0.3 64
2019-12-10 00:00:00 4.2 4 Noroeste 7 Noroeste 0 936.4 0.6 63
2019-12-09 23:00:00 3.4 5 Oeste 11 Noroeste 0 936.2 1.1 62
2019-12-09 22:00:00 2.9 3 Oeste 8 Noroeste 0 936.3 1.1 49
2019-12-09 21:00:00 4.6 2 Este 8 Nordeste 0 935.8 1 44
2019-12-09 20:00:00 6.5 0 Calma 8 Sudoeste 0 935.1 0.5 39
2019-12-09 19:00:00 6.3 4 Sur 6 Sudoeste 0 935.2 0.5 38
2019-12-09 18:00:00 10.5 4 Noroeste 8 Oeste 0 934.8 0.2 26
2019-12-09 17:00:00 12.5 4 Oeste 8 Oeste 0 934.6 -0.7 26
2019-12-09 16:00:00 11.9 2 Nordeste 6 Nordeste 0 934.7 -1 26
2019-12-09 15:00:00 11.8 3 Sur 8 Sudeste 0 934.6 -1.7 32
2019-12-09 14:00:00 11.2 2 Noroeste 9 Noroeste 0 935.3 -0.9 34
2019-12-09 13:00:00 9 4 Norte 9 Norte 0 935.7 0.2 38
2019-12-09 12:00:00 8.6 2 Este 10 Sudeste 0 936.3 0.6 44
2019-12-09 11:00:00 7.3 0 Calma 5 Norte 0 936.2 1.4 48
2019-12-09 10:00:00 6.1 3 Noroeste 8 Oeste 0 935.5 1 55
2019-12-09 09:00:00 6.1 2 Noroeste 8 Nordeste 0 935.7 1.3 59
2019-12-09 08:00:00 5.4 2 Nordeste 7 Norte 0 934.8 0.7 63
2019-12-09 07:00:00 5.8 0 Calma 7 Oeste 0 934.5 0.8 64
2019-12-09 06:00:00 5.9 4 Noroeste 11 Oeste 0 934.4 0.5 64
2019-12-09 05:00:00 5.8 5 Noroeste 10 Norte 0 934.1 0.7 63
2019-12-09 04:00:00 5.9 4 Oeste 8 Oeste 0 933.7 -0.2 61
2019-12-09 03:00:00 5.8 3 Sur 7 Sur 0 933.9 0.4 61
2019-12-09 02:00:00 5.5 6 Sudoeste 10 Sudoeste 0 933.4 0.4 61
2019-12-09 01:00:00 5.7 6 Oeste 9 Oeste 0 933.9 1 58
2019-12-09 00:00:00 5.9 5 Noroeste 10 Noroeste 0 933.5 0.9 57
2019-12-08 23:00:00 6.3 6 Oeste 16 Oeste 0 933 0.7 57
2019-12-08 22:00:00 6.5 8 Oeste 15 Oeste 0 932.9 0.4 56
2019-12-08 21:00:00 6.8 3 Noroeste 8 Sudoeste 0 932.6 0.5 55
2019-12-08 20:00:00 6.6 8 Sudoeste 18 Oeste 0 932.3 0.8 57
2019-12-08 19:00:00 7.5 6 Oeste 15 Oeste 0 932.5 1.1 52
2019-12-08 18:00:00 8.4 9 Oeste 16 Oeste 0 932.1 0.7 45
2019-12-08 17:00:00 9.2 8 Oeste 19 Oeste 0 931.5 0.1 41
2019-12-08 16:00:00 9.5 12 Noroeste 19 Noroeste 0 931.4 -0.5 36
2019-12-08 15:00:00 11.5 8 Noroeste 14 Noroeste 0 931.4 -1.7 32
2019-12-08 14:00:00 11.5 5 Sur 10 Sur 0 931.4 -1.4 33
2019-12-08 13:00:00 10.3 3 Sur 8 Sudeste 0 931.9 -0.7 37
2019-12-08 12:00:00 8 0 Calma 5 Noroeste 0 933.1 0.9 48
2019-12-08 11:00:00 5.4 0 Calma 4 Sudeste 0 932.8 0.4 63
2019-12-08 10:00:00 1.9 0 Calma 4 Norte 0 932.6 1 64
2019-12-08 09:00:00 -0.6 0 Calma 3 Este 0 932.2 0.8 64
2019-12-08 08:00:00 -1.6 0 Calma 4 Nordeste 0 932.4 0.9 64
2019-12-08 07:00:00 -1.4 3 Nordeste 4 Nordeste 0 931.6 0 64
2019-12-08 06:00:00 -1 0 Calma 3 Este 0 931.4 -0.5 64
2019-12-08 05:00:00 -1.2 0 Calma 5 Nordeste 0 931.5 -0.4 64
2019-12-08 04:00:00 -0.4 0 Calma 4 Sur 0 931.6 -0.5 64
2019-12-08 03:00:00 -0.2 0 Calma 4 Norte 0 931.9 -0.2 64
2019-12-08 02:00:00 0.1 0 Calma 8 Norte 0 931.9 0.2 64
2019-12-08 01:00:00 0.8 0 Calma 5 Noroeste 0.1 932.1 0.5 64
2019-12-08 00:00:00 0.9 0 Calma 6 Nordeste 0 932.1 0.3 64
2019-12-07 23:00:00 0.8 3 Este 6 Este 0 931.7 0.4 64
2019-12-07 22:00:00 1.1 2 Sudoeste 6 Oeste 0 931.6 0.7 64
2019-12-07 21:00:00 2.3 2 Este 5 Oeste 0.1 931.8 1.2 64
2019-12-07 20:00:00 1.9 2 Norte 6 Oeste 0 931.3 0.9 64
2019-12-07 19:00:00 3 0 Calma 5 Sudoeste 0 930.9 1.2 64
2019-12-07 18:00:00 3 3 Oeste 10 Oeste 0 930.6 0.9 65
2019-12-07 17:00:00 3.2 6 Oeste 13 Oeste 0 930.4 0.4 65
2019-12-07 16:00:00 4 4 Oeste 8 Norte 0 929.7 -0.9 65
2019-12-07 15:00:00 3.3 2 Noroeste 10 Noroeste 0 929.7 -1.4 65
2019-12-07 14:00:00 3 5 Noroeste 11 Noroeste 0 930 -1.2 65
2019-12-07 13:00:00 2.7 4 Noroeste 12 Oeste 0 930.6 0.1 65
2019-12-07 12:00:00 2.3 3 Sudoeste 10 Noroeste 0 931.1 1.2 64
2019-12-07 11:00:00 1.5 5 Noroeste 9 Oeste 0 931.2 1.4 64
2019-12-07 10:00:00 1.1 4 Noroeste 8 Oeste 0 930.5 1 64
2019-12-07 09:00:00 1.1 4 Oeste 10 Noroeste 0 929.9 1.1 64
2019-12-07 08:00:00 0.5 4 Oeste 9 Oeste 0 929.8 0.5 64
2019-12-07 07:00:00 1.5 0 Calma 5 Norte 0.1 929.5 0.1 64
2019-12-07 06:00:00 2.2 0 Calma 7 Oeste 0 928.8 -0.5 64
2019-12-07 05:00:00 1.7 3 Noroeste 6 Noroeste 0 929.3 0.3 64
2019-12-07 04:00:00 0.6 0 Calma 7 Oeste 0 929.4 0.4 64
2019-12-07 03:00:00 0.6 4 Sudoeste 7 Sudoeste 0 929.3 0.2 64
2019-12-07 02:00:00 1.9 2 Sudoeste 5 Noroeste 0 929 0.2 64
2019-12-07 01:00:00 2.7 0 Calma 4 Sur 0 929 0.5 64
2019-12-07 00:00:00 2.8 3 Sudoeste 7 Oeste 0 929.1 0.7 64
2019-12-06 23:00:00 3.9 4 Oeste 7 Oeste 0 928.8 0.9 64
2019-12-06 22:00:00 3 4 Sudoeste 8 Oeste 0 928.5 0.8 64
2019-12-06 21:00:00 4.7 6 Oeste 12 Oeste 0 928.4 1.2 63
2019-12-06 20:00:00 4.5 4 Oeste 11 Oeste 0 927.9 0.8 61
2019-12-06 19:00:00 6.2 4 Sudoeste 8 Oeste 0 927.7 0.9 58
2019-12-06 18:00:00 7.5 3 Sudoeste 10 Sudoeste 0 927.2 0.4 54
2019-12-06 17:00:00 9.5 7 Oeste 16 Oeste 0 927.1 -0.2 48
2019-12-06 16:00:00 9.2 10 Oeste 19 Oeste 0 926.8 -1.4 50
2019-12-06 15:00:00 9.8 9 Oeste 14 Oeste 0 926.8 -2.1 47
2019-12-06 14:00:00 7.5 3 Norte 5 Norte 0 927.3 -1.9 60
2019-12-06 13:00:00 4.9 0 Calma 6 Oeste 0 928.2 -0.6 65
2019-12-06 12:00:00 4.2 0 Calma 8 Noroeste 0 928.9 0.7 65
2019-12-06 11:00:00 2.7 2 Sudoeste 6 Oeste 0 929.2 1.2 65
2019-12-06 10:00:00 2.2 3 Oeste 7 Noroeste 0 928.8 1.8 65
2019-12-06 09:00:00 0.8 5 Noroeste 8 Oeste 0 928.2 1.6 65
2019-12-06 08:00:00 -0.3 3 Sudoeste 10 Oeste 0 928 1.6 65
2019-12-06 07:00:00 -1.8 6 Sudoeste 8 Sudoeste 0 927 0.2 64
2019-12-06 06:00:00 0.5 0 Calma 6 Sur 0 926.6 0.4 64
2019-12-06 05:00:00 0 4 Sur 6 Sudoeste 0 926.4 0.3 64
2019-12-06 04:00:00 0.4 4 Sudoeste 9 Noroeste 0 926.8 0.5 64
2019-12-06 03:00:00 1.4 6 Noroeste 9 Noroeste 0 926.2 0.2 63
2019-12-06 02:00:00 0.5 4 Sudoeste 6 Sur 0 926.1 0.2 62
2019-12-06 01:00:00 2.3 3 Noroeste 11 Este 0 926.3 0.5 60
2019-12-06 00:00:00 2.7 6 Este 10 Este 0 926 0.8 57
2019-12-05 23:00:00 3.4 4 Este 10 Este 0 925.9 1.3 56
2019-12-05 22:00:00 1.8 5 Sudoeste 11 Este 0 925.8 1.6 57
2019-12-05 21:00:00 3.7 8 Este 16 Este 0 925.2 1.5 51
2019-12-05 20:00:00 4.8 5 Este 11 Este 0 924.6 1.6 51
2019-12-05 19:00:00 5.2 5 Nordeste 12 Nordeste 0 924.2 1.8 51
2019-12-05 18:00:00 6.4 8 Nordeste 14 Nordeste 0 923.7 1.2 47
2019-12-05 17:00:00 7.8 6 Este 13 Este 0 923 0.6 43
2019-12-05 16:00:00 7.8 6 Este 13 Este 0 922.4 -0.2 42
2019-12-05 15:00:00 7.9 10 Sudeste 16 Norte 0 922.5 -0.2 45
2019-12-05 14:00:00 6.5 12 Norte 22 Norte 0 922.4 -0.1 55
2019-12-05 13:00:00 5.2 15 Norte 22 Norte 0 922.6 0.7 59
2019-12-05 12:00:00 4.7 13 Norte 22 Norte 0 922.7 1.6 59
2019-12-05 11:00:00 4.9 12 Nordeste 20 Nordeste 0 922.5 1.5 57
2019-12-05 10:00:00 4.3 10 Norte 18 Nordeste 0 921.9 1.8 61
2019-12-05 09:00:00 3.9 9 Norte 14 Nordeste 0 921.1 1.5 63
2019-12-05 08:00:00 4.1 6 Nordeste 15 Nordeste 0 921 1.8 63
2019-12-05 07:00:00 3.9 8 Norte 11 Norte 0 920.1 0.8 64
2019-12-05 06:00:00 4.7 0 Calma 6 Norte 0 919.6 0.5 65
2019-12-05 05:00:00 4.4 4 Norte 10 Norte 0.1 919.2 0.7 65
2019-12-05 04:00:00 4.7 5 Norte 10 Norte 0 919.3 0.9 65
2019-12-05 03:00:00 4.9 2 Noroeste 9 Oeste 0 919.1 1.2 65
2019-12-05 02:00:00 4.8 4 Noroeste 8 Oeste 0 918.5 0.7 65
2019-12-05 01:00:00 5 5 Oeste 10 Noroeste 0 918.4 1 65
2019-12-05 00:00:00 5.2 3 Oeste 7 Oeste 0 917.9 0.7 65
2019-12-04 23:00:00 4.9 5 Noroeste 9 Norte 0 917.8 1.2 65
2019-12-04 22:00:00 4.9 5 Noroeste 9 Noroeste 0 917.4 1.2 65
2019-12-04 21:00:00 5.3 5 Noroeste 9 Noroeste 0 917.2 0.9 65
2019-12-04 20:00:00 5 5 Noroeste 17 Noroeste 0.9 916.6 0.9 65
2019-12-04 19:00:00 4.7 5 Sudoeste 10 Sudoeste 0.1 916.2 0.5 65
2019-12-04 18:00:00 5.3 6 Oeste 10 Oeste 0.5 916.3 1 64
2019-12-04 17:00:00 5.7 4 Oeste 9 Norte 1 915.7 0.5 63
2019-12-04 16:00:00 5.8 5 Noroeste 15 Noroeste 0.9 915.7 0.1 60
2019-12-04 15:00:00 5.7 8 Noroeste 15 Oeste 0.3 915.3 -1.2 57
2019-12-04 14:00:00 6.2 8 Oeste 13 Noroeste 0 915.2 -1.5 51
2019-12-04 13:00:00 6.1 6 Noroeste 13 Oeste 0 915.6 -1.3 50
2019-12-04 12:00:00 5.8 8 Oeste 14 Oeste 0 916.5 -0.3 53
2019-12-04 11:00:00 5.4 6 Noroeste 12 Oeste 0 916.7 -0.2 55
2019-12-04 10:00:00 3.9 2 Noroeste 6 Norte 0 916.9 0.3 62
2019-12-04 09:00:00 2.8 3 Sudoeste 5 Sudoeste 0 916.8 0.2 62
2019-12-04 08:00:00 2.9 0 Calma 4 Oeste 0 916.9 -0.4 61
2019-12-04 07:00:00 2.2 3 Noroeste 10 Sudoeste 0 916.6 -1.1 62
2019-12-04 06:00:00 1.9 0 Calma 5 Oeste 0 916.6 -2 61
2019-12-04 05:00:00 1.7 5 Oeste 8 Oeste 0 917.3 -1.6 62
2019-12-04 04:00:00 1.3 0 Calma 8 Oeste 0 917.7 -1.7 62
2019-12-04 03:00:00 0.9 3 Oeste 8 Oeste 0 918.6 -0.8 60
2019-12-04 02:00:00 1.9 5 Oeste 8 Oeste 0 918.9 -0.7 57
2019-12-04 01:00:00 2.5 0 Calma 8 Norte 0 919.4 -0.5 55
2019-12-04 00:00:00 2.3 5 Nordeste 21 Nordeste 0 919.4 -0.1 55
2019-12-03 23:00:00 2.4 9 Nordeste 19 Nordeste 0 919.6 -0.1 55
2019-12-03 22:00:00 3.1 12 Nordeste 23 Nordeste 0 919.9 0.6 54
2019-12-03 21:00:00 3.7 12 Nordeste 23 Nordeste 0 919.5 1 53
2019-12-03 20:00:00 4.2 12 Nordeste 23 Nordeste 0 919.7 1.2 55
2019-12-03 19:00:00 4.6 13 Nordeste 30 Nordeste 0 919.3 1.3 54
2019-12-03 18:00:00 5.2 18 Nordeste 31 Nordeste 0 918.5 0.8 53
2019-12-03 17:00:00 5.4 14 Nordeste 31 Nordeste 0 918.5 0.2 55
2019-12-03 16:00:00 6.5 19 Nordeste 30 Nordeste 0 918 -1.1 46
2019-12-03 15:00:00 7.2 15 Nordeste 29 Nordeste 0 917.7 -2.1 41
2019-12-03 14:00:00 7.8 17 Nordeste 28 Nordeste 0 918.3 -1.9 44
2019-12-03 13:00:00 7.5 16 Nordeste 27 Nordeste 0 919.1 -1.4 44
2019-12-03 12:00:00 7.2 16 Nordeste 30 Nordeste 0 919.8 -0.5 46
2019-12-03 11:00:00 6.5 15 Nordeste 27 Nordeste 0 920.2 0.5 49
2019-12-03 10:00:00 4.8 13 Nordeste 20 Nordeste 0 920.5 0.9 56
2019-12-03 09:00:00 3.5 12 Nordeste 22 Nordeste 0 920.3 0.6 60
2019-12-03 08:00:00 2.7 13 Norte 23 Nordeste 0 919.7 -0.4 60
2019-12-03 07:00:00 3.1 12 Nordeste 21 Nordeste 0 919.6 -1 58
2019-12-03 06:00:00 3.3 13 Nordeste 25 Nordeste 0 919.7 -1.2 58
2019-12-03 05:00:00 3.6 14 Nordeste 24 Nordeste 0 920.1 -1.1 57
2019-12-03 04:00:00 3.8 15 Nordeste 26 Nordeste 0 920.6 -0.7 57
2019-12-03 03:00:00 4.2 13 Nordeste 24 Nordeste 0 920.9 -0.8 56
2019-12-03 02:00:00 3.9 13 Nordeste 36 Nordeste 0 921.2 -0.5 57
2019-12-03 01:00:00 4.4 21 Nordeste 41 Nordeste 0 921.3 -0.6 55
2019-12-03 00:00:00 4.7 20 Nordeste 35 Nordeste 0 921.7 0.3 57
2019-12-02 23:00:00 4.7 17 Nordeste 35 Nordeste 0 921.7 1 58
2019-12-02 22:00:00 4.6 19 Nordeste 38 Nordeste 0 921.9 1.9 59
2019-12-02 21:00:00 4.5 22 Nordeste 37 Nordeste 0 921.4 1.8 58
2019-12-02 20:00:00 4.7 18 Nordeste 31 Nordeste 0 920.7 1.7 57
2019-12-02 19:00:00 5.3 17 Nordeste 33 Nordeste 0 920 1.3 53
2019-12-02 18:00:00 6.3 21 Nordeste 41 Nordeste 0 919.6 1.1 49
2019-12-02 17:00:00 6.6 18 Nordeste 35 Nordeste 0 919 0.6 51
2019-12-02 16:00:00 7.1 21 Nordeste 37 Nordeste 0 918.7 -0.3 46
2019-12-02 15:00:00 7.6 21 Nordeste 38 Nordeste 0 918.5 -0.8 43
2019-12-02 14:00:00 7.9 22 Nordeste 38 Nordeste 0 918.4 -1.2 42
2019-12-02 13:00:00 6.6 15 Nordeste 38 Nordeste 0 919 -0.3 48
2019-12-02 12:00:00 6 24 Nordeste 39 Nordeste 0 919.3 0.6 47
2019-12-02 11:00:00 4.6 23 Nordeste 39 Nordeste 0 919.6 1.4 49
2019-12-02 10:00:00 3.6 13 Nordeste 27 Nordeste 0 919.3 1.6 54
2019-12-02 09:00:00 3.6 12 Nordeste 25 Nordeste 0 918.7 1.5 58
2019-12-02 08:00:00 3.4 2 Nordeste 6 Nordeste 0 918.2 1.2 64
2019-12-02 07:00:00 3.6 0 Calma 7 Nordeste 0 917.7 0.4 64
2019-12-02 06:00:00 3.5 5 Nordeste 9 Nordeste 0 917.2 0.1 65
2019-12-02 05:00:00 4.2 3 Nordeste 9 Nordeste 0 917 -0.3 64
2019-12-02 04:00:00 3.8 4 Nordeste 11 Este 0.1 917.3 -0.3 64
2019-12-02 03:00:00 4.2 8 Sudeste 11 Nordeste 0 917.1 -0.4 65
2019-12-02 02:00:00 4.4 5 Este 11 Este 0 917.3 -0.1 65
2019-12-02 01:00:00 4.6 7 Sudeste 13 Sudeste 0 917.6 -0.3 65
2019-12-02 00:00:00 4.4 10 Sudeste 19 Sudeste 0 917.5 -0.3 65
2019-12-01 23:00:00 4.3 11 Sudeste 18 Sudeste 0.1 917.4 -0.9 65
2019-12-01 22:00:00 4 4 Este 8 Este 0 917.9 -0.1 64
2019-12-01 21:00:00 4.3 2 Sur 13 Noroeste 0.2 917.8 -0.5 63
2019-12-01 20:00:00 4.7 8 Noroeste 19 Noroeste 0 918.3 0.8 61
2019-12-01 19:00:00 5.2 8 Sudeste 25 Sudeste 2.5 918 -0.1 55
2019-12-01 18:00:00 5.2 13 Oeste 27 Sur 2.8 918.3 -0.5 61
2019-12-01 17:00:00 5.9 25 Sur 35 Sur 0 917.5 -1.3 51
2019-12-01 16:00:00 6.5 19 Sur 29 Sur 0 918.1 -1.9 49
2019-12-01 15:00:00 6.2 19 Sur 33 Sur 0 918.8 -1.8 49
2019-12-01 14:00:00 6.7 21 Sur 30 Sudoeste 0.1 918.8 -2.4 45
2019-12-01 13:00:00 7 11 Sudoeste 24 Sur 0 920 -1.3 45
2019-12-01 12:00:00 7.4 14 Sur 23 Sur 0 920.6 -0.9 42
2019-12-01 11:00:00 6.9 10 Sur 19 Sur 0 921.2 -0.3 41
2019-12-01 10:00:00 5.2 4 Sur 8 Sudoeste 0 921.3 -0.3 54
2019-12-01 09:00:00 3.1 2 Nordeste 4 Norte 0 921.5 -0.2 60
2019-12-01 08:00:00 2.4 4 Sudoeste 13 Sur 0 921.5 -0.3 61
2019-12-01 07:00:00 2.8 3 Sur 12 Sudoeste 0 921.6 -0.3 64
2019-12-01 06:00:00 3.5 6 Sudoeste 11 Noroeste 0 921.7 -0.9 63
2019-12-01 05:00:00 4.9 4 Noroeste 18 Oeste 0 921.8 -0.9 62
2019-12-01 04:00:00 5.6 12 Oeste 19 Oeste 0.1 921.9 -1.3 62
2019-12-01 03:00:00 5.7 14 Oeste 30 Oeste 0.7 922.6 -1.3 64
2019-12-01 02:00:00 7 15 Sudoeste 29 Sudoeste 0 922.7 -1.3 63
2019-12-01 01:00:00 7.4 19 Sudoeste 32 Sudoeste 0 923.2 -1.6 59
2019-12-01 00:00:00 8.2 12 Sur 26 Sur 0 923.9 -1.5 56
2019-11-30 23:00:00 7.7 24 Sur 32 Sur 0 924 -1.5 58
2019-11-30 22:00:00 8.3 23 Sudoeste 38 Sur 0 924.8 -0.5 53
2019-11-30 21:00:00 7.9 12 Sudoeste 24 Sudoeste 0 925.4 -0.3 59
2019-11-30 20:00:00 7.4 5 Sur 13 Oeste 0 925.5 0.7 59
2019-11-30 19:00:00 8.9 10 Oeste 14 Oeste 0 925.3 0 55
2019-11-30 18:00:00 10.7 9 Oeste 19 Oeste 0 925.7 0.1 49
2019-11-30 17:00:00 13.2 11 Oeste 22 Oeste 0 924.8 -1.7 35
2019-11-30 16:00:00 14.5 12 Oeste 26 Oeste 0 925.3 -2.2 30
2019-11-30 15:00:00 15.2 17 Oeste 25 Oeste 0 925.6 -2.7 27
2019-11-30 14:00:00 15.1 4 Sur 11 Sur 0 926.5 -2.3 34
2019-11-30 13:00:00 13.3 2 Nordeste 9 Noroeste 0 927.5 -1.6 40
2019-11-30 12:00:00 12.7 2 Oeste 8 Sudeste 0 928.3 -0.8 42
2019-11-30 11:00:00 11 8 Este 11 Este 0 928.8 -0.1 49
2019-11-30 10:00:00 6.5 3 Nordeste 6 Sudeste 0 929.1 0.1 61
2019-11-30 09:00:00 3.6 3 Nordeste 7 Este 0 929.1 0.1 64
2019-11-30 08:00:00 4.3 2 Nordeste 4 Nordeste 0 928.9 -0.1 65
2019-11-30 07:00:00 4.9 4 Sur 5 Nordeste 0 929 -0.2 65
2019-11-30 06:00:00 5 4 Nordeste 5 Norte 0 929 -0.7 63
2019-11-30 05:00:00 6.8 0 Calma 7 Sudoeste 0 929 -0.8 61
2019-11-30 04:00:00 7.3 3 Sur 6 Sur 0 929.2 -0.4 62
2019-11-30 03:00:00 6.6 6 Oeste 9 Oeste 0 929.7 0.2 63
2019-11-30 02:00:00 6.2 5 Noroeste 6 Noroeste 0 929.8 0.4 62
2019-11-30 01:00:00 5.9 2 Sudoeste 5 Sudoeste 0 929.6 -0.4 60
2019-11-30 00:00:00 6 4 Sudoeste 5 Sudoeste 0 929.5 -0.6 61
2019-11-29 23:00:00 7 3 Sur 4 Sur 0 929.4 -0.4 57
2019-11-29 22:00:00 9 0 Calma 3 Oeste 0 930 0.4 52
2019-11-29 21:00:00 9.2 0 Calma 6 Noroeste 0 930.1 0.9 51
2019-11-29 20:00:00 9.5 3 Noroeste 8 Noroeste 0 929.8 0.3 55
2019-11-29 19:00:00 9.8 0 Calma 6 Oeste 0 929.6 0.5 53
2019-11-29 18:00:00 9.6 3 Oeste 11 Oeste 0 929.2 0.2 52
2019-11-29 17:00:00 10 4 Noroeste 10 Noroeste 0 929.5 0 50
2019-11-29 16:00:00 9.8 4 Oeste 12 Sudoeste 0 929.1 -0.4 49
2019-11-29 15:00:00 9.6 9 Sudoeste 13 Noroeste 0 929 -1.1 48
2019-11-29 14:00:00 10.5 5 Noroeste 14 Noroeste 0 929.5 -0.5 47
2019-11-29 13:00:00 10.7 8 Oeste 15 Oeste 0 929.5 0.1 48
2019-11-29 12:00:00 10.5 7 Oeste 15 Oeste 0 930.1 1.4 47
2019-11-29 11:00:00 10 6 Oeste 14 Sudoeste 0 930 1.2 48
2019-11-29 10:00:00 9.3 4 Sudoeste 7 Sudoeste 0 929.4 0.8 51
2019-11-29 09:00:00 8.1 5 Sudoeste 8 Sudoeste 0 928.7 0.9 55
2019-11-29 08:00:00 7.5 4 Sudoeste 9 Oeste 0 928.8 1.2 56
2019-11-29 07:00:00 7.5 5 Sudoeste 9 Sudoeste 0 928.6 0.7 57
2019-11-29 06:00:00 7.6 4 Oeste 10 Sudoeste 0 927.8 0.3 57
2019-11-29 05:00:00 6.3 3 Este 6 Este 0 927.6 0.4 59
2019-11-29 04:00:00 6.5 2 Sudoeste 7 Nordeste 0 927.9 0.5 59
2019-11-29 03:00:00 6.4 0 Calma 10 Sudeste 0 927.5 0.1 55
2019-11-29 02:00:00 5.2 4 Sur 10 Sur 0 927.2 -0.3 56
2019-11-29 01:00:00 6.1 5 Sur 10 Sur 0 927.4 0.1 55
2019-11-29 00:00:00 6.1 5 Sur 10 Sur 0 927.4 0.3 55
2019-11-28 23:00:00 5.7 7 Sur 11 Sur 0 927.5 0.7 55
2019-11-28 22:00:00 6.9 5 Sur 8 Sur 0 927.3 0.6 53
2019-11-28 21:00:00 7.5 4 Sudoeste 9 Sudoeste 0 927.1 0.8 51
2019-11-28 20:00:00 7.4 5 Sur 7 Sur 0 926.8 0.3 51
2019-11-28 19:00:00 7.3 4 Sudoeste 10 Sur 0 926.7 0.8 49
2019-11-28 18:00:00 7.5 8 Sudoeste 17 Sudoeste 0 926.3 0.1 49
2019-11-28 17:00:00 7.8 12 Sudoeste 18 Sudoeste 0 926.5 -0.2 47
2019-11-28 16:00:00 7.7 13 Sudoeste 22 Sudoeste 0 925.9 -0.9 50
2019-11-28 15:00:00 8 12 Sudoeste 22 Oeste 0 926.2 -1.2 49
2019-11-28 14:00:00 7.3 15 Sudoeste 24 Sudoeste 0 926.7 -0.8 53
2019-11-28 13:00:00 6.6 12 Sudoeste 20 Sudoeste 0 926.8 -0.5 55
2019-11-28 12:00:00 6.4 12 Sudoeste 18 Sudoeste 0 927.4 1 55
2019-11-28 11:00:00 6.4 8 Sur 11 Sur 0 927.5 1.5 57
2019-11-28 10:00:00 5.5 7 Sudeste 10 Sudeste 0 927.3 1.8 64
2019-11-28 09:00:00 3.3 0 Calma 5 Sudoeste 0 926.4 1.5 64
2019-11-28 08:00:00 3.7 0 Calma 9 Este 0 926 1.3 64
2019-11-28 07:00:00 3.6 4 Sudoeste 10 Sudoeste 0 925.5 0.6 64
2019-11-28 06:00:00 3.6 0 Calma 8 Nordeste 0 924.9 0 62
2019-11-28 05:00:00 3.9 3 Sur 9 Este 0 924.7 -0.3 61
2019-11-28 04:00:00 3.5 2 Sur 9 Sudoeste 0 924.9 0.5 58
2019-11-28 03:00:00 4.9 2 Sudoeste 10 Oeste 0 924.9 0.1 54
2019-11-28 02:00:00 5 4 Sudoeste 10 Oeste 0 925 0.4 53
2019-11-28 01:00:00 3.2 8 Sudoeste 13 Sudoeste 0 924.4 -0.2 57
2019-11-28 00:00:00 5.4 2 Este 10 Sudoeste 0 924.8 0 54
2019-11-27 23:00:00 6 6 Oeste 10 Oeste 0 924.6 1.3 52
2019-11-27 22:00:00 6.4 5 Oeste 12 Oeste 0 924.6 1.3 54
2019-11-27 21:00:00 6.4 9 Oeste 16 Oeste 0 924.8 2.5 53
2019-11-27 20:00:00 6 6 Sudoeste 10 Sudoeste 0 923.3 0.9 54
2019-11-27 19:00:00 6.6 11 Oeste 22 Oeste 0 923.3 1.4 52
2019-11-27 18:00:00 7.9 13 Oeste 24 Sudoeste 0 922.3 0.3 47
2019-11-27 17:00:00 9.4 16 Sudoeste 28 Sudoeste 0 922.4 -0.3 38
2019-11-27 16:00:00 10.8 17 Sudoeste 33 Sudoeste 0 921.9 -1.7 36
2019-11-27 15:00:00 10.7 21 Sudoeste 35 Sudoeste 0 922 -1.3 35
2019-11-27 14:00:00 9.8 18 Oeste 31 Sudoeste 0 922.7 -0.9 37
2019-11-27 06:00:00 8.2 9 Sudoeste 19 Sudoeste 0 920.9 0.9 60
2019-11-27 05:00:00 8.2 12 Sudoeste 27 Sudoeste 0 920.7 0 57
2019-11-27 04:00:00 8.4 21 Sudoeste 32 Sudoeste 0 920.3 -0.6 58
2019-11-27 03:00:00 8.9 18 Sudoeste 24 Sudoeste 0.1 920 -1.1 64
2019-11-27 02:00:00 9.3 10 Oeste 22 Sudoeste 0.1 920.7 -0.2 65
2019-11-27 01:00:00 9.2 18 Sudoeste 33 Sudoeste 0 920.9 0 63
2019-11-27 00:00:00 9.1 24 Sudoeste 42 Sudoeste 0.1 921.1 0.1 61
2019-11-26 23:00:00 9.7 6 Sudoeste 32 Sudoeste 0.3 920.9 -0.8 59
2019-11-26 22:00:00 9.4 17 Sudoeste 36 Sudoeste 0 920.9 -0.1 55
2019-11-26 21:00:00 9.7 21 Sudoeste 44 Sudoeste 0 921 0.1 53
2019-11-26 20:00:00 9.9 16 Sudoeste 37 Sudoeste 0 921.7 0.2 53
2019-11-26 19:00:00 9.7 30 Sudoeste 45 Sudoeste 0 921 -1.1 54
2019-11-26 18:00:00 9.3 29 Sudoeste 40 Sudoeste 0 920.9 -1 57
2019-11-26 17:00:00 10.7 13 Sudoeste 25 Sudoeste 0 921.5 -1.4 55
2019-11-26 16:00:00 10.7 20 Sudoeste 30 Oeste 0 922.1 -1.7 54
2019-11-26 15:00:00 13.4 14 Sudoeste 27 Sur 0 921.9 -2.3 45
2019-11-26 14:00:00 11 14 Sur 21 Sudoeste 0 922.9 -1.7 49
2019-11-26 13:00:00 11.4 13 Sudoeste 23 Sudeste 0 923.8 -0.8 49
2019-11-26 12:00:00 10.4 15 Sur 23 Sur 0 924.2 -0.1 54
2019-11-26 11:00:00 10 11 Sur 15 Sur 0 924.6 0.1 55
2019-11-26 10:00:00 9.2 9 Sudoeste 14 Sudoeste 0 924.6 0.8 56
2019-11-26 09:00:00 8.2 4 Sur 8 Sudoeste 0 924.3 0.3 60
2019-11-26 08:00:00 7 3 Sudoeste 11 Sur 0 924.5 0 62
2019-11-26 07:00:00 6.3 7 Sur 9 Sur 0 923.8 -0.6 61
2019-11-26 06:00:00 7.8 0 Calma 7 Sur 0 924 -0.9 61
2019-11-26 05:00:00 7.6 3 Sur 6 Nordeste 0 924.5 -0.5 63
2019-11-26 04:00:00 7.3 2 Norte 6 Sur 0 924.4 -0.8 62
2019-11-26 03:00:00 8.5 3 Oeste 10 Sudoeste 0 924.9 -0.9 61
2019-11-26 02:00:00 8.5 4 Sur 10 Sudoeste 0 925 -0.5 59
2019-11-26 01:00:00 9.4 0 Calma 7 Sudoeste 0 925.2 -0.4 59
2019-11-26 00:00:00 8.7 5 Sudoeste 7 Sudoeste 0 925.8 0.4 58
2019-11-25 23:00:00 9.5 0 Calma 5 Sudoeste 0 925.5 0.2 58
2019-11-25 22:00:00 9.4 3 Sur 5 Sur 0 925.6 0.8 59
2019-11-25 21:00:00 10.3 3 Oeste 6 Oeste 0 925.4 1 59
2019-11-25 20:00:00 9.9 2 Sudoeste 9 Oeste 0 925.3 1.2 59
2019-11-25 19:00:00 9.8 6 Sudoeste 15 Oeste 0 924.8 1 59
2019-11-25 18:00:00 9.5 13 Sudoeste 22 Sudoeste 0 924.4 0.6 56
2019-11-25 17:00:00 9.9 16 Sudoeste 26 Sudoeste 0 924.1 0.1 54
2019-11-25 16:00:00 10.5 15 Sudoeste 33 Sudoeste 0 923.8 -0.6 52
2019-11-25 15:00:00 10.6 23 Sudoeste 36 Sudoeste 0 923.8 -0.7 49
2019-11-25 14:00:00 10.7 26 Sudoeste 41 Sudoeste 0 924 -0.5 47
2019-11-25 13:00:00 10.7 28 Sudoeste 48 Sudoeste 0 924.4 -0.5 48
2019-11-25 12:00:00 10.1 29 Sudoeste 38 Sudoeste 0 924.5 0.3 49
2019-11-25 11:00:00 9.3 24 Sudoeste 33 Sudoeste 0 924.5 0.2 52
2019-11-25 10:00:00 8.3 13 Sudoeste 25 Oeste 0 924.9 0.9 57
2019-11-25 09:00:00 7.5 7 Sudoeste 24 Oeste 0 924.2 0.3 59
2019-11-25 08:00:00 6.7 15 Sudoeste 54 Sudoeste 0 924.3 0.5 58
2019-11-25 07:00:00 6.3 19 Sudoeste 31 Sur 0 924 -0.1 59
2019-11-25 06:00:00 5.8 21 Sudoeste 34 Sudoeste 0 923.9 0 57
2019-11-25 05:00:00 5.9 17 Sudoeste 31 Sudoeste 0 923.8 -0.9 57
2019-11-25 04:00:00 5.9 15 Sur 27 Sudoeste 0 924.1 -1.1 55
2019-11-25 03:00:00 5.8 22 Sudoeste 32 Sur 0 923.9 -1.4 55
2019-11-25 02:00:00 5.3 16 Sur 24 Sur 0 924.7 -0.5 59
2019-11-25 01:00:00 5.3 17 Sur 23 Sur 0 925.2 -0.1 59
2019-11-25 00:00:00 5.6 10 Sur 19 Sudoeste 0 925.3 0.2 55
2019-11-24 23:00:00 6.3 3 Sudoeste 11 Sur 0 925.2 0.5 53
2019-11-24 22:00:00 4.9 3 Este 7 Oeste 0 925.3 0.7 55
2019-11-24 21:00:00 4.2 4 Sur 11 Sudoeste 0 925.1 1.4 57
2019-11-24 20:00:00 3.8 6 Sudoeste 20 Oeste 0 924.7 1.3 53
2019-11-24 19:00:00 4.9 8 Sudoeste 20 Oeste 0 924.6 1.7 50
2019-11-24 18:00:00 5.7 12 Oeste 27 Oeste 0 923.7 1 42
2019-11-24 17:00:00 7.2 22 Oeste 30 Oeste 0 923.4 0 37
2019-11-24 16:00:00 8.7 14 Oeste 32 Sudoeste 0 922.9 -0.7 32
2019-11-24 15:00:00 8.4 15 Oeste 28 Sudoeste 0 922.7 -1.7 34
2019-11-24 14:00:00 8 11 Oeste 24 Oeste 0 923.4 -1.4 35
2019-11-24 13:00:00 7.1 13 Oeste 23 Noroeste 0 923.6 -0.1 38
2019-11-24 12:00:00 6.2 11 Noroeste 19 Noroeste 0 924.4 0.3 43
2019-11-24 11:00:00 5.4 7 Oeste 16 Sudoeste 0 924.8 1.4 48
2019-11-24 10:00:00 3.3 7 Sudoeste 16 Oeste 0 923.7 1.2 57
2019-11-24 09:00:00 0.6 13 Oeste 23 Oeste 0 924.1 2.4 62
2019-11-24 08:00:00 0.8 8 Oeste 17 Oeste 0 923.4 2.1 60
2019-11-24 07:00:00 0.9 12 Oeste 15 Oeste 0 922.5 1.2 60
2019-11-24 06:00:00 0.7 8 Oeste 15 Oeste 0 921.7 0.8 60
2019-11-24 05:00:00 0.6 11 Oeste 16 Oeste 0 921.3 0.5 60
2019-11-24 04:00:00 0.3 14 Oeste 20 Oeste 0 921.3 0.4 60
2019-11-24 03:00:00 0.5 14 Oeste 22 Oeste 0 920.9 0.2 58
2019-11-24 02:00:00 1.5 11 Oeste 21 Oeste 0 920.8 0.5 57
2019-11-24 01:00:00 2.4 12 Oeste 26 Oeste 0 920.9 1.1 55
2019-11-24 00:00:00 2.6 14 Oeste 25 Oeste 0 920.7 1.3 52
2019-11-23 23:00:00 2.7 12 Oeste 28 Oeste 0 920.3 1.8 51
2019-11-23 22:00:00 2.7 17 Oeste 25 Oeste 0 919.8 1.4 51
2019-11-23 21:00:00 2.8 19 Oeste 26 Oeste 0 919.4 2.4 49
2019-11-23 20:00:00 3.2 19 Oeste 28 Oeste 0 918.5 2.2 49
2019-11-23 19:00:00 3.4 15 Oeste 21 Oeste 0 918.4 3.4 46
2019-11-23 18:00:00 4.5 15 Oeste 32 Oeste 0 917 2.4 42
2019-11-23 17:00:00 6.8 21 Oeste 35 Oeste 0 916.3 1.8 37
2019-11-23 16:00:00 6.3 18 Oeste 38 Oeste 0 915 0.9 36
2019-11-23 15:00:00 6.3 21 Oeste 48 Oeste 0 914.6 0.3 36
2019-11-23 14:00:00 7.9 26 Oeste 45 Sudoeste 0 914.5 1 36
2019-11-23 13:00:00 6.8 28 Oeste 49 Oeste 0 914.1 1.6 37
2019-11-23 12:00:00 6 27 Oeste 50 Oeste 0 914.3 3.5 42
2019-11-23 11:00:00 5.3 23 Oeste 39 Oeste 0 913.5 3.9 46
2019-11-23 10:00:00 3.9 21 Oeste 43 Oeste 0 912.5 4.1 47
2019-11-23 09:00:00 3.3 27 Oeste 49 Oeste 0 910.8 2.9 50
2019-11-23 08:00:00 3.2 28 Oeste 45 Oeste 0 909.6 1.4 53
2019-11-23 07:00:00 3.4 31 Oeste 57 Oeste 0 908.4 1 54
2019-11-23 06:00:00 3.3 26 Oeste 53 Sudoeste 0.1 907.9 1.3 57
2019-11-23 05:00:00 3.9 28 Oeste 49 Oeste 0.1 908.2 1.9 58
2019-11-23 04:00:00 3.8 27 Oeste 62 Sudoeste 1.2 907.4 0.3 59
2019-11-23 03:00:00 4.5 26 Oeste 57 Sudoeste 1 906.6 0.2 61
2019-11-23 02:00:00 4.8 31 Sudoeste 46 Sudoeste 0.7 906.3 -0.5 59
2019-11-23 01:00:00 5.5 23 Oeste 52 Sudoeste 0.4 907.1 0.1 54
2019-11-23 00:00:00 6.1 29 Sudoeste 43 Sudoeste 0 906.4 -0.4 53
2019-11-22 23:00:00 6.2 29 Sudoeste 44 Sudoeste 0 906.8 0.8 55
2019-11-22 22:00:00 6.1 11 Sudoeste 17 Sudoeste 0 907 2 57
2019-11-22 21:00:00 7.4 5 Oeste 29 Sudoeste 0 906.8 2.9 57
2019-11-22 20:00:00 7.3 19 Oeste 41 Oeste 0.9 906 1.8 62
2019-11-22 19:00:00 8.7 18 Sudoeste 45 Sudoeste 0.9 905 -0.1 62
2019-11-22 18:00:00 8.4 36 Sudoeste 53 Sudoeste 0.4 903.9 -1.5 58
2019-11-22 17:00:00 8.9 30 Sur 47 Sudoeste 3.5 904.2 -2.7 59
2019-11-22 16:00:00 8.3 33 Sudoeste 62 Sur 3.3 905.1 -3.2 61
2019-11-22 15:00:00 8.6 38 Sur 60 Sudoeste 1.1 905.4 -4.9 59
2019-11-22 14:00:00 8.8 35 Sudoeste 66 Sur 2.7 906.9 -4.1 58
2019-11-22 13:00:00 8.1 23 Sur 39 Sur 2 908.3 -3.2 60
2019-11-22 12:00:00 8.3 21 Sur 36 Sudoeste 0 910.3 -1.8 60
2019-11-22 11:00:00 7.9 20 Sur 34 Sur 0 911 -1.5 60
2019-11-22 10:00:00 7.3 17 Sur 23 Sur 0 911.5 -1.7 61
2019-11-22 09:00:00 6.6 19 Sur 27 Sudoeste 0 912.1 -1.2 57
2019-11-22 08:00:00 6.3 7 Sur 22 Sudoeste 0 912.5 -1.4 55
2019-11-22 07:00:00 6.1 13 Sudoeste 27 Sudoeste 0 913.2 -1.2 59
2019-11-22 06:00:00 6.1 19 Sudoeste 29 Sudoeste 0 913.3 -1.1 59
2019-11-22 05:00:00 6.2 7 Sur 13 Sudeste 0 913.9 -0.9 65
2019-11-22 04:00:00 6.1 7 Sur 12 Sur 0 914.4 -1.1 63
2019-11-22 03:00:00 6.5 0 Calma 8 Sur 0 914.4 -1.5 61
2019-11-22 02:00:00 5.9 6 Sudoeste 17 Sudoeste 0 914.8 -1.2 62
2019-11-22 01:00:00 6 8 Sudoeste 21 Sudoeste 0 915.5 -0.3 60
2019-11-22 00:00:00 5.9 0 Calma 9 Oeste 0 915.9 -0.4 61
2019-11-21 23:00:00 6.8 0 Calma 13 Sur 0 916 -0.4 60
2019-11-21 22:00:00 5.7 8 Sur 14 Sudeste 0 915.8 0 64
2019-11-21 21:00:00 6.7 0 Calma 6 Sudeste 0.5 916.3 0.6 65
2019-11-21 20:00:00 6.5 6 Sudeste 10 Sudeste 0 916.4 0.7 65
2019-11-21 19:00:00 6.1 7 Sur 10 Sur 0.2 915.8 0.2 64
2019-11-21 18:00:00 6.2 6 Sur 13 Sur 0.4 915.7 0 62
2019-11-21 17:00:00 7 5 Sudoeste 15 Sudoeste 0.5 915.7 -0.5 60
2019-11-21 16:00:00 6.8 12 Sudoeste 18 Sudoeste 0.2 915.6 -1.1 56
2019-11-21 15:00:00 6.7 14 Sudoeste 21 Sudoeste 0.2 915.7 -2.1 57
2019-11-21 14:00:00 6.8 12 Sudoeste 30 Sudoeste 0 916.2 -1.4 54
2019-11-21 13:00:00 6.9 20 Sudoeste 28 Sudoeste 0 916.7 -0.8 53
2019-11-21 12:00:00 6.3 11 Sudoeste 20 Sudoeste 0.1 917.8 0.4 60
2019-11-21 11:00:00 5.4 18 Sudoeste 24 Sudoeste 0 917.6 0.3 61
2019-11-21 10:00:00 6.5 0 Calma 15 Sudoeste 0 917.5 0.8 61
2019-11-21 09:00:00 4.8 10 Sudoeste 16 Sudoeste 0 917.4 0.8 64
2019-11-21 08:00:00 4.7 6 Sur 8 Sur 0 917.3 0.6 61
2019-11-21 07:00:00 4.1 5 Sudoeste 18 Sudoeste 0 916.7 -0.6 62
2019-11-21 06:00:00 3.7 13 Sudoeste 16 Sudoeste 0 916.6 -0.6 61
2019-11-21 05:00:00 4.6 4 Sudoeste 11 Sudoeste 0.1 916.7 -0.5 62
2019-11-21 04:00:00 4.5 8 Sudoeste 15 Sudoeste 0.1 917.3 -0.6 64
2019-11-21 03:00:00 4.2 8 Sudoeste 13 Sudoeste 0.3 917.2 -0.4 65
2019-11-21 02:00:00 4.4 9 Oeste 25 Sudoeste 0.2 917.2 -0.5 63
2019-11-21 01:00:00 4.2 8 Sudoeste 27 Sudoeste 0 917.9 0.4 60
2019-11-21 00:00:00 3.3 16 Sudoeste 22 Sudoeste 0 917.6 0.5 62
2019-11-20 23:00:00 3.5 8 Sudoeste 23 Sudoeste 0 917.7 0.9 62
2019-11-20 22:00:00 4.4 8 Sudoeste 18 Oeste 0 917.5 0.8 61
2019-11-20 21:00:00 4 3 Nordeste 18 Sudoeste 0 917.1 0.4 61
2019-11-20 20:00:00 3.8 19 Sudoeste 34 Sudoeste 0.2 916.8 0 59
2019-11-20 19:00:00 2.8 5 Sudeste 14 Sudeste 0.9 916.7 -0.6 64
2019-11-20 18:00:00 3.4 5 Sudeste 24 Sudeste 0.2 916.7 -0.5 62
2019-11-20 17:00:00 2.6 15 Sudeste 21 Sur 0 916.8 -1.2 60
2019-11-20 16:00:00 2.8 7 Sur 27 Sur 1 917.3 -1.1 55
2019-11-20 15:00:00 3.2 11 Sur 22 Sur 0.5 917.2 -1.6 50
2019-11-20 14:00:00 4.3 16 Sudoeste 31 Sudoeste 0 918 -1.1 39
2019-11-20 13:00:00 5.5 21 Sudoeste 36 Sudoeste 0 918.4 -1.2 39
2019-11-20 12:00:00 6.8 16 Sur 24 Sudoeste 0 918.8 -0.9 37
2019-11-20 11:00:00 6.1 0 Calma 6 Nordeste 0 919.1 0.1 45
2019-11-20 10:00:00 2.1 3 Nordeste 7 Nordeste 0 919.6 0.1 57
2019-11-20 09:00:00 -0.6 6 Nordeste 7 Nordeste 0 919.7 0.4 61
2019-11-20 08:00:00 -1.7 2 Este 6 Nordeste 0 919 -0.9 63
2019-11-20 07:00:00 -1.8 4 Nordeste 7 Este 0 919.5 -1 64
2019-11-20 06:00:00 -1.5 5 Este 7 Nordeste 0 919.3 -1.6 64
2019-11-20 05:00:00 -1.4 5 Este 6 Este 0 919.9 -1.3 63
2019-11-20 04:00:00 0 0 Calma 4 Nordeste 0 920.5 -1.4 62
2019-11-20 03:00:00 0.1 3 Nordeste 5 Nordeste 0 920.9 -1 62
2019-11-20 02:00:00 0.5 3 Nordeste 5 Nordeste 0 921.2 -1.6 61
2019-11-20 01:00:00 1.5 4 Este 6 Este 0 921.9 -0.8 60
2019-11-20 00:00:00 2.4 4 Este 6 Este 0 921.9 -1 57
2019-11-19 23:00:00 3.3 0 Calma 0 Calma 0 922.8 -0.4 57
2019-11-19 22:00:00 3.1 0 Calma 3 Sudoeste 0 922.7 -0.1 53
2019-11-19 21:00:00 3.9 0 Calma 5 Nordeste 0 922.9 0.5 51
2019-11-19 20:00:00 4.4 3 Norte 4 Norte 0 923.2 0.9 47
2019-11-19 19:00:00 5.8 0 Calma 5 Noroeste 0 922.8 0.1 41
2019-11-19 18:00:00 6.8 3 Noroeste 9 Oeste 0 922.4 -0.5 36
2019-11-19 17:00:00 7.3 6 Oeste 13 Noroeste 0 922.3 -1 33
2019-11-19 16:00:00 8.2 6 Oeste 20 Noroeste 0 922.7 -1.3 31
2019-11-19 15:00:00 7.6 6 Noroeste 14 Oeste 0 922.9 -2 30
2019-11-19 14:00:00 8.2 5 Oeste 15 Oeste 0 923.3 -2.1 29
2019-11-19 13:00:00 7.2 2 Norte 8 Sudeste 0 924 -1.3 28
2019-11-19 12:00:00 6.9 3 Nordeste 6 Nordeste 0 924.9 -0.2 31
2019-11-19 11:00:00 3.5 4 Nordeste 6 Nordeste 0 925.4 0.4 52
2019-11-19 10:00:00 0 3 Nordeste 7 Nordeste 0 925.3 0.8 57
2019-11-19 09:00:00 -1.7 4 Nordeste 6 Nordeste 0 925.1 0.5 59
2019-11-19 08:00:00 -1.7 0 Calma 5 Sur 0 925 0.6 60
2019-11-19 07:00:00 -1.4 0 Calma 5 Nordeste 0 924.5 0 60
2019-11-19 06:00:00 -1.4 0 Calma 7 Nordeste 0 924.6 -0.1 60
2019-11-19 05:00:00 -0.6 2 Este 6 Nordeste 0 924.4 -0.5 59
2019-11-19 04:00:00 0.3 0 Calma 5 Norte 0 924.5 -0.8 57
2019-11-19 03:00:00 0.5 0 Calma 5 Sudoeste 0 924.7 -0.3 55
2019-11-19 02:00:00 -0.1 4 Sudoeste 7 Oeste 0 924.9 -0.1 58
2019-11-19 01:00:00 0.7 4 Sudoeste 5 Sudoeste 0 925.3 0.5 54
2019-11-19 00:00:00 1.6 3 Sudoeste 6 Sudoeste 0 925 0.3 52
2019-11-18 23:00:00 0.4 4 Sudoeste 8 Oeste 0 925 0.8 54
2019-11-18 22:00:00 2.6 5 Oeste 9 Oeste 0 924.8 1.1 48
2019-11-18 21:00:00 2.9 4 Sudoeste 6 Sudoeste 0 924.7 1.9 49
2019-11-18 20:00:00 5.1 0 Calma 9 Oeste 0 924.2 1.8 43
2019-11-18 19:00:00 5.7 4 Oeste 8 Oeste 0 923.7 1.7 40
2019-11-18 18:00:00 6.3 6 Noroeste 15 Noroeste 0 922.8 0.8 34
2019-11-18 17:00:00 7 6 Norte 18 Norte 0 922.4 0.7 31
2019-11-18 16:00:00 6.6 12 Norte 23 Norte 0 922 0.3 30
2019-11-18 15:00:00 6.9 13 Norte 23 Norte 0 922 -0.2 30
2019-11-18 14:00:00 6.6 12 Norte 26 Norte 0 921.7 -0.1 33
2019-11-18 13:00:00 5.8 15 Norte 28 Norte 0 921.7 0.7 36
2019-11-18 12:00:00 5.2 9 Noroeste 19 Noroeste 0 922.2 1.9 41
2019-11-18 11:00:00 4.9 9 Noroeste 18 Oeste 0 921.8 2.1 47
2019-11-18 10:00:00 3.8 8 Noroeste 12 Noroeste 0 921 2 52
2019-11-18 09:00:00 0.6 7 Oeste 14 Oeste 0 920.3 1.8 60
2019-11-18 08:00:00 0.9 7 Noroeste 13 Oeste 0 919.7 1.7 58
2019-11-18 07:00:00 0.7 7 Noroeste 19 Norte 0 919 1.4 59
2019-11-18 06:00:00 3.1 10 Noroeste 17 Noroeste 0 918.5 1.3 63
2019-11-18 05:00:00 3.7 11 Norte 17 Noroeste 0 918 0.3 64
2019-11-18 04:00:00 4.6 8 Norte 18 Noroeste 0.1 917.6 0.1 65
2019-11-18 03:00:00 4.8 9 Norte 15 Noroeste 0 917.2 -0.6 65
2019-11-18 02:00:00 5.8 9 Noroeste 47 Oeste 2 917.7 -0.3 64
2019-11-18 01:00:00 6.1 21 Oeste 36 Oeste 0.6 917.5 -0.7 65
2019-11-18 00:00:00 6.4 9 Noroeste 35 Oeste 0.7 917.8 -1.3 65
2019-11-17 23:00:00 5.5 24 Sudoeste 43 Sudoeste 0.2 918 -1.9 63
2019-11-17 22:00:00 5.2 31 Sudoeste 45 Sudoeste 0.4 918.2 -2.1 62
2019-11-17 21:00:00 4.6 27 Sudoeste 37 Sudoeste 3.8 919.1 -1.7 62
2019-11-17 20:00:00 4.6 22 Sudoeste 35 Sudoeste 0.9 919.9 -1.2 63
2019-11-17 19:00:00 5.4 16 Sudoeste 28 Sudoeste 0 920.3 -1.7 56
2019-11-17 18:00:00 5.1 17 Sudoeste 26 Sudoeste 0 920.8 -1.3 53
2019-11-17 17:00:00 5.4 17 Sudoeste 28 Sudoeste 0 921.1 -1.7 53
2019-11-17 16:00:00 5.1 20 Sudoeste 32 Sudoeste 0 922 -1.2 51
2019-11-17 15:00:00 5.3 22 Sudoeste 32 Sudoeste 0 922.1 -1.6 51
2019-11-17 14:00:00 3.8 12 Sudoeste 28 Sudoeste 0 922.8 -1.6 53
2019-11-17 13:00:00 2.4 21 Sudoeste 32 Sudoeste 0 923.2 -1 53
2019-11-17 12:00:00 3.4 13 Sur 24 Sur 0 923.7 -0.4 53
2019-11-17 11:00:00 3.2 4 Sudoeste 18 Sudoeste 0 924.4 0.3 53
2019-11-17 10:00:00 1.8 15 Sudoeste 21 Sudoeste 0 924.2 0.2 54
2019-11-17 09:00:00 1 2 Sur 5 Nordeste 0 924.1 0.3 56
2019-11-17 08:00:00 -0.1 4 Este 7 Este 0 924.1 0.3 54
2019-11-17 07:00:00 -1.4 2 Norte 5 Oeste 0 924 0.2 51
2019-11-17 06:00:00 0.4 2 Sudoeste 12 Oeste 0 923.8 -0.4 48
2019-11-17 05:00:00 0 3 Oeste 8 Oeste 0 923.8 -0.3 47
2019-11-17 04:00:00 0.5 0 Calma 8 Oeste 0 923.8 -0.3 46
2019-11-17 03:00:00 1 4 Oeste 8 Oeste 0 924.2 0 45
2019-11-17 02:00:00 1.4 5 Oeste 14 Oeste 0 924.1 -0.5 44
2019-11-17 01:00:00 0.6 5 Oeste 11 Oeste 0 924.1 -0.6 43
2019-11-17 00:00:00 1.8 5 Oeste 14 Sudoeste 0 924.2 0.1 41
2019-11-16 23:00:00 1 8 Sudoeste 13 Sudoeste 0 924.6 0.6 42
2019-11-16 22:00:00 0.2 9 Sudoeste 13 Sudoeste 0 924.7 1.2 45
2019-11-16 21:00:00 0.2 9 Oeste 14 Oeste 0 924.1 1 44
2019-11-16 20:00:00 1.8 9 Oeste 18 Oeste 0 924 0.9 39
2019-11-16 19:00:00 0.6 10 Sudoeste 17 Oeste 0 923.5 1.6 39
2019-11-16 18:00:00 5.4 9 Oeste 22 Oeste 0 923.1 1.5 30
2019-11-16 17:00:00 6.7 13 Oeste 23 Oeste 0 923.1 1.2 26
2019-11-16 16:00:00 7 13 Oeste 23 Oeste 0 921.9 -0.1 26
2019-11-16 15:00:00 6.5 7 Noroeste 20 Oeste 0 921.6 -0.9 29
2019-11-16 14:00:00 4.9 8 Noroeste 18 Oeste 0 921.9 0.1 32
2019-11-16 13:00:00 5.5 11 Oeste 22 Oeste 0 922 0.5 33
2019-11-16 12:00:00 4.4 4 Noroeste 15 Oeste 0 922.5 1.4 37
2019-11-16 11:00:00 3.2 2 Noroeste 6 Oeste 0 921.8 1.6 39
2019-11-16 10:00:00 1.6 2 Sudoeste 6 Oeste 0 921.5 2.5 48
2019-11-16 09:00:00 -1.4 3 Sudoeste 11 Oeste 0 921.1 2.9 55
2019-11-16 08:00:00 -2.7 3 Sudoeste 9 Oeste 0 920.2 2.9 55
2019-11-16 07:00:00 -2.2 4 Oeste 9 Oeste 0 919 2.1 55
2019-11-16 06:00:00 -1.5 7 Noroeste 9 Noroeste 0 918.2 1.7 52
2019-11-16 05:00:00 -1.4 5 Noroeste 9 Noroeste 0 917.3 0.7 52
2019-11-16 04:00:00 -0.6 6 Oeste 11 Oeste 0 916.9 0.6 50
2019-11-16 03:00:00 -1.4 6 Sudoeste 11 Oeste 0 916.5 0.4 53
2019-11-16 02:00:00 0.2 6 Oeste 14 Oeste 0 916.6 0.9 50
2019-11-16 01:00:00 0.1 11 Oeste 13 Oeste 0 916.3 1.1 49
2019-11-16 00:00:00 0.4 12 Oeste 16 Oeste 0 916.1 1.2 51
2019-11-15 23:00:00 -0.2 5 Sudoeste 14 Oeste 0 915.7 1.2 52
2019-11-15 22:00:00 1.5 10 Oeste 18 Oeste 0 915.2 1 48
2019-11-15 21:00:00 1.5 8 Oeste 15 Oeste 0 914.9 0.9 48
2019-11-15 20:00:00 0.7 12 Oeste 16 Oeste 0 914.5 0.7 49
2019-11-15 19:00:00 0.8 11 Sudoeste 16 Sudoeste 0 914.2 0.9 48
2019-11-15 18:00:00 1.4 10 Sudoeste 18 Sudoeste 0 914 0.8 48
2019-11-15 17:00:00 1.7 13 Sudoeste 22 Sudoeste 0 913.8 0.4 47
2019-11-15 16:00:00 2.7 13 Sudoeste 23 Sudoeste 0 913.3 -0.5 41
2019-11-15 15:00:00 3.4 15 Sudoeste 23 Sudoeste 0 913.2 -1.1 39
2019-11-15 14:00:00 3.7 10 Sudoeste 22 Oeste 0 913.4 -0.7 37
2019-11-15 13:00:00 3.3 12 Oeste 22 Oeste 0 913.8 -0.2 40
2019-11-15 12:00:00 2.7 15 Oeste 26 Sudoeste 0 914.3 0.6 44
2019-11-15 11:00:00 1.9 20 Sudoeste 29 Oeste 0 914.1 0.8 45
2019-11-15 10:00:00 0.5 19 Oeste 31 Oeste 0 914 0.4 46
2019-11-15 09:00:00 0.6 15 Oeste 28 Oeste 0 913.7 0.7 50
2019-11-15 08:00:00 0 18 Oeste 31 Oeste 0 913.3 0.4 51
2019-11-15 07:00:00 0.8 8 Oeste 22 Oeste 0 913.6 0.8 50
2019-11-15 06:00:00 0.8 15 Oeste 29 Oeste 0 913 0.2 49
2019-11-15 05:00:00 0.7 19 Sudoeste 33 Sudoeste 0 912.9 -0.4 49
2019-11-15 04:00:00 0.9 18 Oeste 31 Oeste 0 912.8 -0.6 49
2019-11-15 03:00:00 2.1 16 Oeste 33 Oeste 0 912.8 -0.5 49
2019-11-15 02:00:00 2.9 14 Oeste 28 Sudoeste 0 913.3 0.7 48
2019-11-15 01:00:00 2.7 17 Oeste 40 Oeste 0 913.4 0.6 48
2019-11-15 00:00:00 2.7 19 Oeste 46 Oeste 0 913.3 0.9 47
2019-11-14 23:00:00 2.7 32 Oeste 48 Oeste 0 912.6 -0.3 45
2019-11-14 22:00:00 3.1 29 Oeste 51 Oeste 0 912.8 -0.3 45
2019-11-14 21:00:00 2.8 34 Oeste 50 Oeste 0 912.4 0.4 44
2019-11-14 20:00:00 3.1 27 Sudoeste 46 Sudoeste 0 912.9 0.6 42
2019-11-14 19:00:00 3.4 22 Sudoeste 45 Sudoeste 0 913.1 0.9 42
2019-11-14 18:00:00 3.2 28 Oeste 52 Oeste 0 912 0 42
2019-11-14 17:00:00 4.5 23 Oeste 46 Oeste 0 912.3 0 45
2019-11-14 16:00:00 5.4 24 Oeste 53 Oeste 0 912.2 -1.7 45
2019-11-14 15:00:00 5.4 29 Oeste 54 Oeste 0 912 -2 45
2019-11-14 14:00:00 4.7 29 Oeste 40 Oeste 0.5 912.3 -1.9 58
2019-11-14 13:00:00 2.6 23 Oeste 50 Oeste 3 913.9 -0.5 61
2019-11-14 12:00:00 3.6 31 Sudoeste 46 Sudoeste 2.8 914 -1.1 63
2019-11-14 11:00:00 4 26 Sudoeste 39 Sudoeste 0.7 914.2 -1.1 61
2019-11-14 10:00:00 4.2 29 Sudoeste 44 Sudoeste 0.2 914.4 -1.7 61
2019-11-14 09:00:00 4.2 23 Sudoeste 37 Sudoeste 0 915.1 -1.6 60
2019-11-14 08:00:00 4.6 18 Sudoeste 37 Oeste 0 915.3 -1.4 51
2019-11-14 07:00:00 4 17 Sudoeste 33 Sudoeste 0 916.1 -1.4 53
2019-11-14 06:00:00 3.6 23 Sudoeste 37 Sudoeste 0 916.7 -1.3 54
2019-11-14 05:00:00 5.5 10 Noroeste 24 Oeste 0 916.7 -2.2 53
2019-11-14 04:00:00 5.7 19 Sudoeste 39 Sudoeste 0 917.5 -2.5 51
2019-11-14 03:00:00 5.9 25 Sudoeste 37 Sudoeste 0 918 -2.5 50
2019-11-14 02:00:00 6.3 21 Sudoeste 37 Sudoeste 0 918.9 -1.8 53
2019-11-14 01:00:00 6.8 18 Sudoeste 29 Sudoeste 0 920 -1.3 57
2019-11-14 00:00:00 7.2 13 Sudoeste 19 Sudoeste 0 920.5 -1.2 55
2019-11-13 23:00:00 7.7 16 Sudoeste 21 Sudoeste 0 920.7 -0.8 56
2019-11-13 22:00:00 8.6 10 Sudoeste 15 Sudoeste 0 921.3 0 53
2019-11-13 21:00:00 9.1 4 Oeste 18 Sudoeste 0 921.7 0.5 55
2019-11-13 20:00:00 9.1 10 Sudoeste 17 Sudoeste 0 921.5 0.2 55
2019-11-13 19:00:00 8.8 9 Sudoeste 22 Sudoeste 0 921.3 0.5 56
2019-11-13 18:00:00 9.8 12 Sudoeste 27 Sudoeste 0 921.2 0.7 51
2019-11-13 17:00:00 12.1 22 Sudoeste 33 Sudoeste 0 921.3 0.4 40
2019-11-13 16:00:00 12.4 21 Sudoeste 35 Oeste 0 920.8 -0.1 40
2019-11-13 15:00:00 13.3 21 Oeste 36 Oeste 0 920.5 -0.1 35
2019-11-13 14:00:00 11.6 18 Oeste 38 Oeste 0 920.9 0.7 41
2019-11-13 13:00:00 11.1 21 Oeste 42 Oeste 0.1 920.9 1.3 44
2019-11-13 12:00:00 11 22 Oeste 38 Oeste 0 920.6 1.5 51
2019-11-13 11:00:00 9.2 23 Oeste 39 Oeste 0.1 920.2 2.1 60
2019-11-13 10:00:00 8.1 21 Oeste 37 Oeste 0 919.6 1.5 61
2019-11-13 09:00:00 7.7 26 Oeste 55 Oeste 0 919.1 0.8 61
2019-11-13 08:00:00 7.9 29 Oeste 47 Sudoeste 0 918.1 -1.2 55
2019-11-13 07:00:00 7.3 28 Oeste 41 Oeste 0 918.1 -0.6 57
2019-11-13 06:00:00 7.1 24 Sudoeste 37 Oeste 0 918.3 -1.1 58
2019-11-13 05:00:00 7.1 24 Oeste 45 Sudoeste 0 919.3 -0.5 55
2019-11-13 04:00:00 6.7 26 Oeste 40 Oeste 0 918.7 -1.8 56
2019-11-13 03:00:00 6.9 14 Sudoeste 28 Sudoeste 0 919.4 -1.9 52
2019-11-13 02:00:00 6.3 22 Sudoeste 32 Sudoeste 0 919.8 -1.7 45
2019-11-13 01:00:00 6.3 21 Sudoeste 28 Sudoeste 0 920.5 -1.5 41
2019-11-13 00:00:00 6.3 15 Oeste 22 Oeste 0 921.3 -0.9 41
2019-11-12 23:00:00 5.3 5 Sudoeste 12 Oeste 0 921.5 -0.8 43
2019-11-12 22:00:00 4.3 5 Sudoeste 13 Sudoeste 0 922 0.3 45
2019-11-12 21:00:00 3.4 9 Sudoeste 15 Oeste 0 922.2 0.5 47
2019-11-12 20:00:00 4.6 11 Oeste 17 Sudoeste 0 922.3 0.6 43
2019-11-12 19:00:00 5.2 11 Sudoeste 20 Oeste 0 921.7 -0.1 41
2019-11-12 18:00:00 8 12 Oeste 23 Oeste 0 921.7 -0.3 34
2019-11-12 17:00:00 10.2 8 Oeste 18 Oeste 0 921.7 -1 28
2019-11-12 16:00:00 10.6 9 Oeste 22 Oeste 0 921.8 -1.8 29
2019-11-12 15:00:00 10.2 10 Oeste 23 Oeste 0 922 -1.6 29
2019-11-12 14:00:00 9.2 9 Noroeste 19 Oeste 0 922.7 -1.1 28
2019-11-12 13:00:00 8.8 9 Noroeste 19 Oeste 0 923.6 -0.9 30
2019-11-12 12:00:00 7.9 7 Noroeste 14 Noroeste 0 923.6 0.4 31
2019-11-12 11:00:00 7.3 5 Noroeste 11 Oeste 0 923.8 0.3 41
2019-11-12 10:00:00 4.7 5 Noroeste 8 Oeste 0 924.5 1.6 61
2019-11-12 09:00:00 1.6 4 Sudoeste 7 Oeste 0 923.2 0.1 65
2019-11-12 08:00:00 1.1 4 Oeste 6 Oeste 0 923.5 -0.4 66
2019-11-12 07:00:00 0.1 3 Sudoeste 8 Oeste 0 922.9 -0.5 66
2019-11-12 06:00:00 2.6 3 Oeste 13 Oeste 0 923.1 -0.8 66
2019-11-12 05:00:00 3.3 6 Oeste 11 Oeste 0 923.9 -0.2 66
2019-11-12 04:00:00 4.3 4 Oeste 10 Noroeste 0 923.4 -0.5 66
2019-11-12 03:00:00 4.3 5 Noroeste 8 Noroeste 0 923.9 -0.4 65
2019-11-12 02:00:00 5.2 3 Noroeste 7 Noroeste 0 924.1 -0.6 65
2019-11-12 01:00:00 5.9 5 Oeste 9 Oeste 0 923.9 -0.5 65
2019-11-12 00:00:00 6.4 3 Noroeste 10 Noroeste 0 924.3 0.4 64
2019-11-11 23:00:00 6.6 4 Oeste 9 Oeste 0 924.7 0.7 63
2019-11-11 22:00:00 7.1 3 Oeste 8 Oeste 0 924.4 0.8 62
2019-11-11 21:00:00 6.7 2 Sudoeste 9 Oeste 0 923.9 0.2 62
2019-11-11 20:00:00 7.1 6 Oeste 14 Oeste 0 924 0.6 61
2019-11-11 19:00:00 6.9 9 Oeste 20 Oeste 0 923.6 0.6 61
2019-11-11 18:00:00 6.9 14 Oeste 24 Oeste 0 923.7 0.6 58
2019-11-11 17:00:00 7.4 13 Oeste 22 Oeste 0 923.4 0 53
2019-11-11 16:00:00 7.6 10 Oeste 21 Oeste 0 923 -1.2 49
2019-11-11 15:00:00 8.1 15 Oeste 24 Oeste 0 923.1 -1.9 44
2019-11-11 14:00:00 8 8 Oeste 16 Oeste 0 923.4 -1.2 41
2019-11-11 13:00:00 6.8 8 Oeste 23 Oeste 0 924.2 -1 44
2019-11-11 12:00:00 6.4 12 Oeste 22 Oeste 0 925 -0.2 44
2019-11-11 11:00:00 5.2 12 Oeste 17 Oeste 0 924.6 -0.6 50
2019-11-11 10:00:00 3.8 10 Oeste 16 Oeste 0 925.2 0.2 58
2019-11-11 09:00:00 2 8 Oeste 12 Oeste 0 925.2 0.2 62
2019-11-11 08:00:00 1.1 8 Noroeste 14 Oeste 0 925.2 0 60
2019-11-11 07:00:00 1.3 9 Oeste 14 Oeste 0 925 -0.2 60
2019-11-11 06:00:00 1.3 9 Oeste 12 Oeste 0 925 -0.7 61
2019-11-11 05:00:00 1.4 8 Oeste 13 Oeste 0 925.2 -0.9 62
2019-11-11 04:00:00 1.3 9 Oeste 13 Oeste 0 925.2 -0.9 62
2019-11-11 03:00:00 1.3 7 Oeste 12 Oeste 0 925.7 0 62
2019-11-11 02:00:00 1 11 Oeste 17 Oeste 0 926.1 0.7 61
2019-11-11 01:00:00 1.8 9 Oeste 18 Oeste 0 926.1 0.9 58
2019-11-11 00:00:00 2.3 12 Oeste 19 Oeste 0 925.7 0.6 55